Thunder radar more information blitzortung!


Radar de pluja more information rain snow radar


Visita la nostra xarxa de llocs de meteo:

Template documentation
and downloads

And another site



No particular awareness of the weather is required.    There are no Weather-warnings

Pagina Historial Weather Underground text

Diari Resum Abril 7, 2016 Unitats:  Mètric    Imperial   Tant
« Previous Dia
SegĂźent Dia »
Diari Setmana Mensual Anual Personalitzada
  Maxima: Minima: Media:
Temperatura: 21.2 °C 8.7 °C 14.6 °C
Punt de rosada: 8.8 °C 1.1 °C 6 °C
Humitat: 72 % 44 % 57 %
Wind Speed: 16.7 km/h 0.0 km/h 5.6 km/h
RĂ fegues de vent: 16.7 km/h - -
Vent:- - SE
Pression baro: 1015.8 hPa 1010.0 hPa -
Precipitacions: 0.0 mm    
Historical Graphs
 
 
Dades de taula per Abril 7, 2016
Temps Temperatura Punt de rosada Pression baro Vent Wind Speed RĂ fegues de vent Humitat Rainfall Rate (Hourly)
00:02 13.9 °C 7.4 °C 1014.8 hPa WSW 3.7 km/h 3.7 km/h 65 % 0.0 mm
00:05 10.4 °C 3.9 °C 1013.8 hPa WSW 1.6 km/h 3.2 km/h 64 % 0.0 mm
00:15 10.2 °C 3.7 °C 1014.8 hPa SW 3.2 km/h 4.8 km/h 64 % 0.0 mm
00:25 10.1 °C 3.6 °C 1014.8 hPa WSW 3.2 km/h 4.8 km/h 64 % 0.0 mm
00:35 10.0 °C 3.5 °C 1014.8 hPa WSW 3.2 km/h 4.8 km/h 64 % 0.0 mm
00:45 9.9 °C 3.4 °C 1013.8 hPa WSW 1.6 km/h 6.4 km/h 64 % 0.0 mm
00:55 9.8 °C 3.3 °C 1013.8 hPa WSW 3.2 km/h 6.4 km/h 64 % 0.0 mm
01:05 9.5 °C 3.2 °C 1013.8 hPa WSW 1.6 km/h 4.8 km/h 65 % 0.0 mm
01:15 9.4 °C 3.2 °C 1013.8 hPa WSW 3.2 km/h 4.8 km/h 65 % 0.0 mm
01:25 9.4 °C 3.2 °C 1014.8 hPa WSW 1.6 km/h 3.2 km/h 65 % 0.0 mm
01:45 9.1 °C 2.9 °C 1014.8 hPa WSW 1.6 km/h 4.8 km/h 65 % 0.0 mm
01:55 9.0 °C 3.0 °C 1014.8 hPa Calm   3.2 km/h 66 % 0.0 mm
02:15 9.0 °C 2.8 °C 1014.8 hPa WSW 3.2 km/h 4.8 km/h 65 % 0.0 mm
02:25 9.0 °C 3.0 °C 1014.8 hPa Calm   3.2 km/h 66 % 0.0 mm
02:35 8.9 °C 2.9 °C 1014.8 hPa West 3.2 km/h 3.2 km/h 66 % 0.0 mm
02:45 8.7 °C 2.7 °C 1014.8 hPa ESE 1.6 km/h 4.8 km/h 66 % 0.0 mm
02:55 8.7 °C 2.7 °C 1014.8 hPa WSW 3.2 km/h 3.2 km/h 66 % 0.0 mm
03:05 9.2 °C 3.2 °C 1014.8 hPa NE 1.6 km/h 3.2 km/h 66 % 0.0 mm
03:15 9.5 °C 3.4 °C 1014.8 hPa ENE 1.6 km/h 3.2 km/h 66 % 0.0 mm
03:25 9.7 °C 3.7 °C 1014.8 hPa ENE 1.6 km/h 3.2 km/h 66 % 0.0 mm
03:35 9.9 °C 3.8 °C 1014.8 hPa NE 1.6 km/h 4.8 km/h 66 % 0.0 mm
03:55 10.6 °C 4.3 °C 1015.8 hPa Calm   4.8 km/h 65 % 0.0 mm
04:15 10.8 °C 4.3 °C 1014.8 hPa NE 4.8 km/h 8.0 km/h 64 % 0.0 mm
04:25 11.0 °C 4.2 °C 1014.8 hPa NE 4.8 km/h 9.7 km/h 63 % 0.0 mm
04:35 11.2 °C 4.4 °C 1014.8 hPa NNE 4.8 km/h 6.4 km/h 63 % 0.0 mm
04:45 11.3 °C 4.3 °C 1014.8 hPa NE 3.2 km/h 8.0 km/h 62 % 0.0 mm
04:55 11.6 °C 4.6 °C 1014.8 hPa NE 8.0 km/h 9.7 km/h 62 % 0.0 mm
05:05 11.7 °C 4.7 °C 1014.8 hPa NE 4.8 km/h 9.7 km/h 62 % 0.0 mm
05:15 12.3 °C 5.2 °C 1014.8 hPa NE 4.8 km/h 6.4 km/h 62 % 0.0 mm
05:25 12.6 °C 5.3 °C 1014.8 hPa NNE 1.6 km/h 6.4 km/h 61 % 0.0 mm
05:35 13.4 °C 5.8 °C 1014.8 hPa North 1.6 km/h 6.4 km/h 60 % 0.0 mm
10:48 14.1 °C 5.9 °C 1014.8 hPa WSW 8.7 km/h 8.7 km/h 58 % 0.0 mm
10:53 14.1 °C 5.7 °C 1014.8 hPa WSW 9.3 km/h 9.3 km/h 57 % 0.0 mm
10:58 14.0 °C 5.8 °C 1014.8 hPa WNW 3.7 km/h 3.7 km/h 58 % 0.0 mm
11:03 13.9 °C 5.5 °C 1014.8 hPa WNW 3.7 km/h 3.7 km/h 57 % 0.0 mm
11:08 13.8 °C 5.4 °C 1014.8 hPa ENE 6.9 km/h 6.9 km/h 57 % 0.0 mm
11:13 13.9 °C 5.5 °C 1014.8 hPa NE 7.4 km/h 7.4 km/h 57 % 0.0 mm
11:18 13.9 °C 5.5 °C 1014.8 hPa NNE 10.3 km/h 10.3 km/h 57 % 0.0 mm
11:23 14.0 °C 5.6 °C 1014.8 hPa NE 9.3 km/h 9.3 km/h 57 % 0.0 mm
11:28 13.9 °C 5.5 °C 1014.8 hPa ENE 13.0 km/h 13.0 km/h 57 % 0.0 mm
11:33 14.0 °C 5.6 °C 1014.8 hPa NE 11.9 km/h 11.9 km/h 57 % 0.0 mm
11:43 14.6 °C 6.2 °C 1014.8 hPa NNW 3.7 km/h 3.7 km/h 57 % 0.0 mm
11:48 14.8 °C 6.3 °C 1014.8 hPa ENE 6.1 km/h 6.1 km/h 57 % 0.0 mm
11:53 15.0 °C 6.6 °C 1014.8 hPa ENE 7.4 km/h 7.4 km/h 57 % 0.0 mm
11:58 14.7 °C 6.0 °C 1014.8 hPa South 5.6 km/h 5.6 km/h 56 % 0.0 mm
12:03 14.9 °C 6.4 °C 1014.8 hPa WNW 3.7 km/h 3.7 km/h 57 % 0.0 mm
12:08 15.3 °C 6.6 °C 1014.8 hPa ENE 4.2 km/h 4.2 km/h 56 % 0.0 mm
12:13 15.6 °C 7.1 °C 1014.8 hPa NE 3.7 km/h 3.7 km/h 57 % 0.0 mm
12:18 15.8 °C 7.1 °C 1014.8 hPa WSW 11.1 km/h 11.1 km/h 56 % 0.0 mm
12:23 16.1 °C 7.1 °C 1014.8 hPa WSW 7.4 km/h 7.4 km/h 55 % 0.0 mm
12:28 16.5 °C 7.2 °C 1014.8 hPa WSW 9.3 km/h 9.3 km/h 54 % 0.0 mm
12:38 17.1 °C 7.7 °C 1014.8 hPa North 5.6 km/h 5.6 km/h 54 % 0.0 mm
12:43 17.0 °C 7.3 °C 1014.8 hPa WSW 5.6 km/h 5.6 km/h 53 % 0.0 mm
12:48 17.1 °C 7.4 °C 1013.8 hPa WSW 7.4 km/h 7.4 km/h 53 % 0.0 mm
12:53 17.4 °C 7.7 °C 1013.8 hPa West 7.4 km/h 7.4 km/h 53 % 0.0 mm
12:58 17.7 °C 8.0 °C 1013.8 hPa NNE 3.7 km/h 3.9 km/h 53 % 0.0 mm
13:03 17.7 °C 8.0 °C 1012.8 hPa WNW 7.4 km/h 7.4 km/h 53 % 0.0 mm
13:08 17.7 °C 7.7 °C 1012.8 hPa SW 5.0 km/h 5.0 km/h 52 % 0.0 mm
13:13 18.2 °C 7.9 °C 1012.8 hPa WNW 5.6 km/h 5.6 km/h 51 % 0.0 mm
13:18 18.1 °C 7.8 °C 1013.8 hPa West 11.1 km/h 11.1 km/h 51 % 0.0 mm
13:23 18.2 °C 7.9 °C 1013.8 hPa WSW 7.6 km/h 7.6 km/h 51 % 0.0 mm
13:28 18.2 °C 7.6 °C 1013.8 hPa WSW 11.1 km/h 11.1 km/h 50 % 0.0 mm
13:33 18.7 °C 8.1 °C 1013.8 hPa WSW 11.1 km/h 11.1 km/h 50 % 0.0 mm
13:38 18.8 °C 7.8 °C 1013.8 hPa WSW 11.1 km/h 11.1 km/h 49 % 0.0 mm
13:43 18.7 °C 7.8 °C 1013.8 hPa North 11.1 km/h 11.1 km/h 49 % 0.0 mm
13:48 18.6 °C 7.4 °C 1013.8 hPa ENE 9.5 km/h 9.5 km/h 48 % 0.0 mm
13:53 18.8 °C 7.6 °C 1013.8 hPa WNW 13.0 km/h 13.0 km/h 48 % 0.0 mm
13:58 19.2 °C 7.6 °C 1013.8 hPa WSW 9.3 km/h 9.3 km/h 47 % 0.0 mm
14:03 19.2 °C 7.9 °C 1012.8 hPa NNW 11.1 km/h 11.1 km/h 48 % 0.0 mm
14:08 19.4 °C 8.1 °C 1012.8 hPa East 7.4 km/h 7.4 km/h 48 % 0.0 mm
14:13 19.2 °C 7.9 °C 1012.8 hPa NNW 5.6 km/h 5.6 km/h 48 % 0.0 mm
14:23 19.8 °C 8.4 °C 1012.8 hPa NNE 7.4 km/h 7.4 km/h 48 % 0.0 mm
14:28 19.5 °C 8.2 °C 1012.8 hPa NNE 7.4 km/h 7.4 km/h 48 % 0.0 mm
14:33 19.6 °C 8.3 °C 1011.7 hPa WNW 9.3 km/h 9.3 km/h 48 % 0.0 mm
14:38 19.9 °C 8.6 °C 1011.7 hPa NNW 9.3 km/h 9.3 km/h 48 % 0.0 mm
14:43 20.0 °C 8.3 °C 1011.7 hPa SW 9.0 km/h 9.0 km/h 47 % 0.0 mm
14:48 20.1 °C 8.1 °C 1011.7 hPa NW 7.4 km/h 7.4 km/h 46 % 0.0 mm
14:53 20.1 °C 8.1 °C 1011.7 hPa WNW 16.7 km/h 16.7 km/h 46 % 0.0 mm
14:58 20.4 °C 8.4 °C 1011.7 hPa West 8.7 km/h 8.7 km/h 46 % 0.0 mm
15:03 20.4 °C 8.1 °C 1010.7 hPa ESE 7.4 km/h 7.4 km/h 45 % 0.0 mm
15:08 20.5 °C 8.2 °C 1010.7 hPa ENE 7.4 km/h 7.4 km/h 45 % 0.0 mm
15:13 20.6 °C 7.9 °C 1010.7 hPa SW 7.4 km/h 7.4 km/h 44 % 0.0 mm
15:18 20.7 °C 8.3 °C 1011.7 hPa WNW 4.7 km/h 4.7 km/h 45 % 0.0 mm
15:28 20.8 °C 8.4 °C 1011.7 hPa NE 3.7 km/h 3.7 km/h 45 % 0.0 mm
15:33 21.2 °C 8.8 °C 1011.7 hPa NNW 6.1 km/h 6.1 km/h 45 % 0.0 mm
15:42 20.8 °C 8.4 °C 1011.7 hPa WNW 7.9 km/h 7.9 km/h 45 % 0.0 mm
15:47 20.5 °C 8.2 °C 1011.7 hPa NE 9.5 km/h 9.5 km/h 45 % 0.0 mm
15:52 20.5 °C 8.2 °C 1011.7 hPa SW 7.4 km/h 7.4 km/h 45 % 0.0 mm
15:57 21.0 °C 8.3 °C 1011.7 hPa NNE 9.3 km/h 9.3 km/h 44 % 0.0 mm
16:02 20.9 °C 8.5 °C 1011.7 hPa NNE 7.9 km/h 7.9 km/h 45 % 0.0 mm
16:07 20.6 °C 8.2 °C 1010.7 hPa East 5.6 km/h 5.6 km/h 45 % 0.0 mm
16:12 20.3 °C 7.9 °C 1010.7 hPa WSW 5.6 km/h 5.6 km/h 45 % 0.0 mm
16:17 20.5 °C 8.2 °C 1010.7 hPa SSW 4.2 km/h 4.2 km/h 45 % 0.0 mm
16:22 20.3 °C 7.9 °C 1010.7 hPa ENE 3.7 km/h 3.7 km/h 45 % 0.0 mm
16:32 19.7 °C 7.7 °C 1010.7 hPa NE 7.4 km/h 7.4 km/h 46 % 0.0 mm
16:37 19.2 °C 7.3 °C 1010.0 hPa SE 5.6 km/h 5.6 km/h 46 % 0.0 mm
16:42 19.0 °C 7.4 °C 1010.0 hPa NE 16.7 km/h 16.7 km/h 47 % 0.0 mm
16:47 18.7 °C 7.4 °C 1010.0 hPa ESE 14.8 km/h 14.8 km/h 48 % 0.0 mm
16:52 18.6 °C 7.7 °C 1010.0 hPa ESE 9.3 km/h 9.3 km/h 49 % 0.0 mm
17:02 18.6 °C 7.7 °C 1010.0 hPa ESE 13.0 km/h 13.0 km/h 49 % 0.0 mm
17:07 18.9 °C 7.9 °C 1010.0 hPa NNE 7.4 km/h 7.4 km/h 49 % 0.0 mm
17:12 19.0 °C 7.7 °C 1010.0 hPa ESE 11.1 km/h 11.1 km/h 48 % 0.0 mm
17:17 19.0 °C 7.7 °C 1010.0 hPa ENE 9.3 km/h 9.3 km/h 48 % 0.0 mm
17:22 18.7 °C 7.8 °C 1010.0 hPa ENE 13.0 km/h 13.0 km/h 49 % 0.0 mm
17:27 18.6 °C 7.7 °C 1010.0 hPa NNE 14.8 km/h 14.8 km/h 49 % 0.0 mm
17:32 18.6 °C 7.9 °C 1010.0 hPa ESE 7.4 km/h 7.4 km/h 50 % 0.0 mm
17:37 18.8 °C 8.2 °C 1010.0 hPa ENE 9.3 km/h 9.3 km/h 50 % 0.0 mm
17:42 18.7 °C 8.1 °C 1010.0 hPa East 11.1 km/h 11.1 km/h 50 % 0.0 mm
17:47 18.4 °C 7.8 °C 1010.0 hPa NNE 9.5 km/h 9.5 km/h 50 % 0.0 mm
17:52 18.1 °C 7.5 °C 1010.0 hPa NE 9.3 km/h 9.3 km/h 50 % 0.0 mm
18:02 18.1 °C 7.5 °C 1010.0 hPa ENE 9.3 km/h 9.3 km/h 50 % 0.0 mm
18:07 17.8 °C 7.5 °C 1010.0 hPa East 7.4 km/h 7.4 km/h 51 % 0.0 mm
18:12 17.6 °C 7.3 °C 1010.0 hPa ENE 6.4 km/h 6.4 km/h 51 % 0.0 mm
18:17 17.4 °C 7.2 °C 1010.0 hPa NNE 11.4 km/h 11.4 km/h 51 % 0.0 mm
18:22 17.0 °C 7.1 °C 1010.0 hPa ENE 9.3 km/h 9.3 km/h 52 % 0.0 mm
18:27 16.7 °C 7.1 °C 1010.0 hPa ESE 11.1 km/h 11.1 km/h 53 % 0.0 mm
18:32 16.7 °C 7.1 °C 1010.0 hPa NE 9.3 km/h 9.3 km/h 53 % 0.0 mm
18:37 16.5 °C 7.2 °C 1010.0 hPa ESE 13.7 km/h 13.7 km/h 54 % 0.0 mm
18:42 16.3 °C 6.9 °C 1010.0 hPa NE 10.0 km/h 10.0 km/h 54 % 0.0 mm
18:47 16.2 °C 7.2 °C 1010.0 hPa ENE 9.5 km/h 9.5 km/h 55 % 0.0 mm
18:52 16.2 °C 7.2 °C 1010.0 hPa ENE 11.1 km/h 11.1 km/h 55 % 0.0 mm
18:57 15.9 °C 6.9 °C 1010.0 hPa ENE 9.3 km/h 9.3 km/h 55 % 0.0 mm
19:02 15.9 °C 7.1 °C 1010.0 hPa NNE 5.6 km/h 5.6 km/h 56 % 0.0 mm
19:07 15.7 °C 6.7 °C 1010.0 hPa ESE 13.0 km/h 13.0 km/h 55 % 0.0 mm
19:12 15.6 °C 6.8 °C 1010.0 hPa ENE 9.3 km/h 9.3 km/h 56 % 0.0 mm
19:15 11.9 °C 7.0 °C 1012.8 hPa ESE 4.8 km/h 4.8 km/h 72 % 0.0 mm
19:17 15.6 °C 6.8 °C 1010.0 hPa ENE 3.9 km/h 6.1 km/h 56 % 0.0 mm
19:22 15.6 °C 6.8 °C 1010.0 hPa ENE 3.9 km/h 6.1 km/h 56 % 0.0 mm
19:25 12.0 °C 7.1 °C 1011.7 hPa East 1.6 km/h 3.2 km/h 72 % 0.0 mm
19:27 15.6 °C 6.8 °C 1010.0 hPa ENE 3.9 km/h 6.1 km/h 56 % 0.0 mm
19:32 15.6 °C 6.8 °C 1010.0 hPa ENE 3.9 km/h 6.1 km/h 56 % 0.0 mm
19:35 11.9 °C 6.6 °C 1011.7 hPa ESE 1.6 km/h 3.2 km/h 70 % 0.0 mm
19:37 15.6 °C 6.8 °C 1010.0 hPa ENE 3.9 km/h 6.1 km/h 56 % 0.0 mm
19:42 15.6 °C 6.8 °C 1010.0 hPa ENE 3.9 km/h 6.1 km/h 56 % 0.0 mm
19:45 11.5 °C 6.2 °C 1011.7 hPa SSW 1.6 km/h 3.2 km/h 70 % 0.0 mm
19:47 15.6 °C 6.8 °C 1010.0 hPa ENE 3.9 km/h 6.1 km/h 56 % 0.0 mm
19:52 15.6 °C 6.8 °C 1010.0 hPa ENE 3.9 km/h 6.1 km/h 56 % 0.0 mm
19:55 11.3 °C 6.0 °C 1011.7 hPa WSW 1.6 km/h 3.2 km/h 70 % 0.0 mm
19:57 15.6 °C 6.8 °C 1010.0 hPa ENE 3.9 km/h 6.1 km/h 56 % 0.0 mm
20:02 15.6 °C 6.8 °C 1010.0 hPa ENE 3.9 km/h 6.1 km/h 56 % 0.0 mm
20:05 11.3 °C 4.3 °C 1011.7 hPa WSW 3.2 km/h 4.8 km/h 62 % 0.0 mm
20:07 15.6 °C 6.8 °C 1010.0 hPa ENE 3.9 km/h 6.1 km/h 56 % 0.0 mm
20:12 15.6 °C 6.8 °C 1010.0 hPa ENE 3.9 km/h 6.1 km/h 56 % 0.0 mm
20:15 11.2 °C 3.7 °C 1011.7 hPa WSW 3.2 km/h 4.8 km/h 60 % 0.0 mm
20:17 15.6 °C 6.8 °C 1010.0 hPa ENE 3.9 km/h 6.1 km/h 56 % 0.0 mm
20:22 15.6 °C 6.8 °C 1010.0 hPa ENE 3.9 km/h 6.1 km/h 56 % 0.0 mm
20:25 11.0 °C 3.1 °C 1011.7 hPa WSW 3.2 km/h 6.4 km/h 58 % 0.0 mm
20:27 15.6 °C 6.8 °C 1010.0 hPa ENE 3.9 km/h 6.1 km/h 56 % 0.0 mm
20:32 15.6 °C 6.8 °C 1010.0 hPa ENE 3.9 km/h 6.1 km/h 56 % 0.0 mm
20:35 10.8 °C 2.4 °C 1011.7 hPa WSW 3.2 km/h 11.3 km/h 56 % 0.0 mm
20:37 15.6 °C 6.8 °C 1010.0 hPa ENE 3.9 km/h 6.1 km/h 56 % 0.0 mm
20:45 10.7 °C 2.3 °C 1010.7 hPa West 1.6 km/h 6.4 km/h 56 % 0.0 mm
20:47 14.1 °C 5.7 °C 1010.7 hPa ENE 3.7 km/h 6.4 km/h 57 % 0.0 mm
20:52 14.0 °C 5.8 °C 1010.7 hPa ENE 5.6 km/h 5.6 km/h 58 % 0.0 mm
20:55 10.7 °C 2.0 °C 1011.7 hPa West 4.8 km/h 4.8 km/h 55 % 0.0 mm
20:57 14.0 °C 5.8 °C 1010.7 hPa ENE 3.7 km/h 3.7 km/h 58 % 0.0 mm
21:02 13.9 °C 5.8 °C 1010.7 hPa ENE 3.7 km/h 3.7 km/h 58 % 0.0 mm
21:05 10.5 °C 1.8 °C 1011.7 hPa West 3.2 km/h 6.4 km/h 55 % 0.0 mm
21:07 13.8 °C 5.9 °C 1011.7 hPa ENE 5.8 km/h 5.8 km/h 59 % 0.0 mm
21:12 13.8 °C 5.9 °C 1011.7 hPa NNE 3.7 km/h 3.7 km/h 59 % 0.0 mm
21:15 10.5 °C 1.6 °C 1011.7 hPa Calm   4.8 km/h 54 % 0.0 mm
21:17 13.8 °C 6.2 °C 1011.7 hPa ENE 3.7 km/h   60 % 0.0 mm
21:22 13.7 °C 6.3 °C 1011.7 hPa ENE 5.6 km/h 5.6 km/h 61 % 0.0 mm
21:25 10.5 °C 1.6 °C 1011.7 hPa WSW 1.6 km/h 8.0 km/h 54 % 0.0 mm
21:27 13.7 °C 6.3 °C 1011.7 hPa ENE 3.9 km/h 3.9 km/h 61 % 0.0 mm
21:32 13.6 °C 6.7 °C 1011.7 hPa NE 7.4 km/h 7.4 km/h 63 % 0.0 mm
21:35 10.4 °C 1.5 °C 1011.7 hPa WNW 3.2 km/h 3.2 km/h 54 % 0.0 mm
21:37 13.4 °C 6.7 °C 1011.7 hPa NNE 5.8 km/h 5.8 km/h 64 % 0.0 mm
21:42 13.3 °C 6.4 °C 1011.7 hPa NNE 5.6 km/h 5.6 km/h 63 % 0.0 mm
21:45 10.2 °C 1.6 °C 1011.7 hPa Calm   1.6 km/h 55 % 0.0 mm
21:47 13.2 °C 6.6 °C 1011.7 hPa NNE 5.6 km/h 5.6 km/h 64 % 0.0 mm
21:52 13.1 °C 6.4 °C 1011.7 hPa NNE 5.6 km/h 5.6 km/h 64 % 0.0 mm
21:55 10.0 °C 1.4 °C 1010.7 hPa Calm   1.6 km/h 55 % 0.0 mm
21:57 13.0 °C 6.3 °C 1011.7 hPa NNE 3.7 km/h 3.7 km/h 64 % 0.0 mm
22:02 12.9 °C 6.2 °C 1011.7 hPa ENE 5.6 km/h 5.6 km/h 64 % 0.0 mm
22:05 9.8 °C 1.2 °C 1010.7 hPa West 1.6 km/h 3.2 km/h 55 % 0.0 mm
22:07 12.8 °C 6.2 °C 1011.7 hPa NNE 7.4 km/h 7.4 km/h 64 % 0.0 mm
22:12 12.8 °C 6.4 °C 1011.7 hPa NE 3.7 km/h 3.7 km/h 65 % 0.0 mm
22:15 9.7 °C 1.3 °C 1010.7 hPa WSW 1.6 km/h 3.2 km/h 56 % 0.0 mm
22:22 12.7 °C 6.3 °C 1011.7 hPa ENE 5.6 km/h 5.6 km/h 65 % 0.0 mm
22:25 9.8 °C 1.4 °C 1011.7 hPa WSW 1.6 km/h 4.8 km/h 56 % 0.0 mm
22:27 12.6 °C 6.4 °C 1011.7 hPa Calm     66 % 0.0 mm
22:32 12.4 °C 6.0 °C 1011.7 hPa SW 1.9 km/h   65 % 0.0 mm
22:35 9.6 °C 1.2 °C 1011.7 hPa SW 3.2 km/h 3.2 km/h 56 % 0.0 mm
22:37 12.2 °C 6.1 °C 1011.7 hPa Calm     66 % 0.0 mm
22:42 12.2 °C 6.1 °C 1011.7 hPa Calm     66 % 0.0 mm
22:45 9.6 °C 1.2 °C 1010.7 hPa Calm   1.6 km/h 56 % 0.0 mm
22:47 12.2 °C 6.2 °C 1011.7 hPa ENE 5.0 km/h 5.0 km/h 67 % 0.0 mm
22:52 12.2 °C 6.2 °C 1011.7 hPa East 9.3 km/h 9.3 km/h 67 % 0.0 mm
22:55 9.8 °C 1.4 °C 1011.7 hPa South 1.6 km/h 3.2 km/h 56 % 0.0 mm
22:57 12.2 °C 6.4 °C 1011.7 hPa ENE 9.3 km/h 9.3 km/h 68 % 0.0 mm
23:02 12.0 °C 6.5 °C 1011.7 hPa ENE 5.8 km/h 5.8 km/h 69 % 0.0 mm
23:05 9.8 °C 1.2 °C 1011.7 hPa Calm   1.6 km/h 55 % 0.0 mm
23:07 12.0 °C 6.5 °C 1011.7 hPa East 7.4 km/h 7.4 km/h 69 % 0.0 mm
23:12 12.0 °C 6.5 °C 1011.7 hPa ESE 5.6 km/h 5.6 km/h 69 % 0.0 mm
23:15 9.8 °C 1.2 °C 1011.7 hPa Calm   3.2 km/h 55 % 0.0 mm
23:17 11.9 °C 6.4 °C 1011.7 hPa Calm     69 % 0.0 mm
23:22 11.8 °C 6.3 °C 1011.7 hPa NW 1.9 km/h 1.9 km/h 69 % 0.0 mm
23:25 9.8 °C 1.4 °C 1011.7 hPa NW 3.2 km/h 3.2 km/h 56 % 0.0 mm
23:27 11.7 °C 6.2 °C 1011.7 hPa NW 1.9 km/h 2.3 km/h 69 % 0.0 mm
23:32 11.7 °C 6.2 °C 1011.7 hPa West 7.4 km/h 7.4 km/h 69 % 0.0 mm
23:35 9.5 °C 1.2 °C 1011.7 hPa Calm   3.2 km/h 56 % 0.0 mm
23:37 11.8 °C 6.9 °C 1011.7 hPa East 5.6 km/h 5.6 km/h 72 % 0.0 mm
23:42 11.9 °C 7.0 °C 1011.7 hPa ENE 5.6 km/h 5.6 km/h 72 % 0.0 mm
23:45 9.4 °C 1.1 °C 1011.7 hPa Calm   6.4 km/h 56 % 0.0 mm
23:47 11.9 °C 7.0 °C 1011.7 hPa Calm     72 % 0.0 mm
23:52 11.8 °C 6.9 °C 1011.7 hPa WSW 1.9 km/h 2.6 km/h 72 % 0.0 mm
23:55 9.4 °C 1.1 °C 1011.7 hPa SW 1.6 km/h 4.8 km/h 56 % 0.0 mm
23:57 11.8 °C 6.5 °C 1011.7 hPa SSE 2.6 km/h 2.6 km/h 70 % 0.0 mm
Meteo Sesrovires
Elogis d' Weather Underground - 3.5 mb

Guio original per  Jim McMurry - jmcmurry@mwt.net Adaptat per a la plantilla per  Wim van der Kuil - Leuven-Template.eu

Trobareu la nostra informacio del temps tambe a:

Weather Underground

AWEKAS